createdAt,value
2018-04-07T00:00:30.017Z,981.1
2018-04-07T00:01:31.469Z,981.1
2018-04-07T00:02:32.790Z,981.1
2018-04-07T00:03:34.065Z,981.1
2018-04-07T00:04:35.331Z,980.9
2018-04-07T00:05:36.570Z,981.1
2018-04-07T00:06:38.272Z,981
2018-04-07T00:07:44.665Z,981.1
2018-04-07T00:08:45.978Z,981
2018-04-07T00:09:47.254Z,981.1
2018-04-07T00:10:48.522Z,981.1
2018-04-07T00:11:49.757Z,981.1
2018-04-07T00:12:51.093Z,981
2018-04-07T00:13:52.327Z,981
2018-04-07T00:14:53.593Z,981.1
2018-04-07T00:15:54.831Z,981
2018-04-07T00:16:56.095Z,981
2018-04-07T00:17:57.396Z,981
2018-04-07T00:18:58.680Z,981
2018-04-07T00:20:00.174Z,981
2018-04-07T00:21:01.593Z,981
2018-04-07T00:22:02.885Z,981
2018-04-07T00:23:04.212Z,981
2018-04-07T00:24:05.478Z,980.9
2018-04-07T00:25:06.763Z,980.9
2018-04-07T00:26:08.046Z,980.9
2018-04-07T00:27:09.316Z,980.9
2018-04-07T00:28:10.753Z,980.9
2018-04-07T00:29:11.985Z,980.9
2018-04-07T00:30:13.222Z,980.8
2018-04-07T00:31:14.472Z,980.9
2018-04-07T00:32:19.591Z,980.9
2018-04-07T00:33:20.878Z,980.8
2018-04-07T00:34:22.126Z,980.6
2018-04-07T00:35:23.485Z,980.8
2018-04-07T00:36:24.732Z,980.7
2018-04-07T00:37:26.018Z,980.7
2018-04-07T00:38:27.303Z,980.7
2018-04-07T00:39:29.039Z,980.4
2018-04-07T00:40:30.362Z,980.7
2018-04-07T00:41:31.707Z,980.7
2018-04-07T00:42:32.976Z,980.7
2018-04-07T00:43:34.429Z,980.5
2018-04-07T00:44:35.647Z,980.7
2018-04-07T00:45:36.901Z,980.6
2018-04-07T00:46:38.126Z,980.7
2018-04-07T00:47:39.395Z,980.7
2018-04-07T00:48:40.665Z,980.5
2018-04-07T00:49:41.967Z,980.7
2018-04-07T00:50:43.172Z,980.6
2018-04-07T00:51:44.500Z,980.6
2018-04-07T00:52:45.761Z,980.6
2018-04-07T00:53:47.042Z,980.6
2018-04-07T00:54:48.265Z,980.6
2018-04-07T00:55:49.596Z,980.6
2018-04-07T00:56:50.856Z,980.6
2018-04-07T00:57:52.115Z,980.5
2018-04-07T00:58:53.632Z,980.6
2018-04-07T00:59:54.868Z,980.6
2018-04-07T01:01:00.960Z,980.4
2018-04-07T01:02:02.499Z,980.6
2018-04-07T01:03:03.758Z,980.6
2018-04-07T01:04:05.238Z,980.6
2018-04-07T01:05:06.520Z,980.6
2018-04-07T01:06:07.741Z,980.6
2018-04-07T01:07:08.986Z,980.5
2018-04-07T01:08:14.417Z,980.4
2018-04-07T01:09:15.780Z,980.5
2018-04-07T01:10:17.018Z,980.5
2018-04-07T01:11:24.155Z,980.5
2018-04-07T01:12:25.481Z,980.5
2018-04-07T01:13:26.728Z,980.6
2018-04-07T01:14:28.026Z,980.5
2018-04-07T01:15:29.291Z,980.3
2018-04-07T01:16:30.541Z,980.5
2018-04-07T01:17:31.922Z,980.4
2018-04-07T01:18:33.184Z,980.5
2018-04-07T01:19:34.499Z,980.5
2018-04-07T01:20:35.818Z,980.6
2018-04-07T01:21:37.075Z,980.5
2018-04-07T01:22:38.388Z,980.5
2018-04-07T01:23:39.667Z,980.4
2018-04-07T01:24:41.090Z,980.4
2018-04-07T01:25:42.382Z,980.4
2018-04-07T01:26:43.627Z,980.4
2018-04-07T01:27:44.859Z,980.3
2018-04-07T01:28:46.080Z,980.3
2018-04-07T01:29:47.414Z,980.3
2018-04-07T01:30:48.654Z,980.4
2018-04-07T01:31:49.891Z,980.3
2018-04-07T01:32:51.128Z,980.3
2018-04-07T01:33:52.393Z,980.4
2018-04-07T01:34:53.673Z,980.3
2018-04-07T01:35:54.924Z,980.3
2018-04-07T01:36:56.183Z,980.3
2018-04-07T01:37:57.404Z,980.3
2018-04-07T01:38:58.665Z,980.2
2018-04-07T01:39:59.986Z,980.3
2018-04-07T01:41:01.262Z,980.4
2018-04-07T01:42:02.565Z,980.3
2018-04-07T01:43:03.876Z,980.3
2018-04-07T01:44:05.116Z,980.3
2018-04-07T01:45:06.522Z,980.3
2018-04-07T01:46:07.823Z,980.3
2018-04-07T01:47:09.048Z,980.3
2018-04-07T01:48:10.309Z,980.3
2018-04-07T01:49:11.612Z,980.2
2018-04-07T01:50:12.901Z,980.3
2018-04-07T01:51:14.315Z,980.3
2018-04-07T01:52:15.676Z,980.2
2018-04-07T01:53:16.917Z,980.2
2018-04-07T01:54:18.188Z,980.2
2018-04-07T01:55:19.459Z,980.2
2018-04-07T01:56:27.501Z,980.2
2018-04-07T01:57:28.758Z,980.2
2018-04-07T01:58:29.977Z,980.1
2018-04-07T01:59:31.691Z,980.1
2018-04-07T02:00:33.004Z,980.1
2018-04-07T02:01:34.246Z,980
2018-04-07T02:02:35.568Z,980.1
2018-04-07T02:03:36.891Z,979.9
2018-04-07T02:04:38.146Z,980
2018-04-07T02:05:39.426Z,980
2018-04-07T02:06:40.668Z,980
2018-04-07T02:07:41.944Z,980
2018-04-07T02:08:43.195Z,980
2018-04-07T02:09:44.448Z,980.1
2018-04-07T02:10:45.728Z,980
2018-04-07T02:11:46.958Z,980
2018-04-07T02:12:48.210Z,980.1
2018-04-07T02:13:49.939Z,980
2018-04-07T02:14:51.248Z,980
2018-04-07T02:15:52.598Z,980.1
2018-04-07T02:16:54.156Z,980.1
2018-04-07T02:17:55.470Z,980
2018-04-07T02:18:56.733Z,980
2018-04-07T02:19:58.018Z,980
2018-04-07T02:20:59.347Z,980
2018-04-07T02:22:00.622Z,980
2018-04-07T02:23:01.937Z,980
2018-04-07T02:24:03.243Z,980
2018-04-07T02:25:04.569Z,979.8
2018-04-07T02:26:05.864Z,979.9
2018-04-07T02:27:07.179Z,980
2018-04-07T02:28:09.681Z,979.6
2018-04-07T02:29:11.036Z,980
2018-04-07T02:30:12.309Z,979.9
2018-04-07T02:31:14.257Z,980
2018-04-07T02:32:15.619Z,980
2018-04-07T02:33:16.862Z,979.9
2018-04-07T02:34:18.131Z,979.9
2018-04-07T02:35:19.361Z,979.9
2018-04-07T02:36:20.707Z,979.9
2018-04-07T02:37:22.100Z,980
2018-04-07T02:38:23.324Z,980
2018-04-07T02:39:24.655Z,980
2018-04-07T02:40:25.906Z,980
2018-04-07T02:41:27.257Z,980
2018-04-07T02:42:28.508Z,980
2018-04-07T02:43:29.732Z,980
2018-04-07T02:44:31.028Z,980
2018-04-07T02:45:32.288Z,980
2018-04-07T02:46:33.580Z,980
2018-04-07T02:47:34.841Z,980
2018-04-07T02:48:36.083Z,980
2018-04-07T02:49:37.348Z,979.9
2018-04-07T02:50:38.662Z,980
2018-04-07T02:51:39.983Z,980
2018-04-07T02:52:41.220Z,980
2018-04-07T02:53:42.541Z,980
2018-04-07T02:54:43.763Z,980
2018-04-07T02:55:45.033Z,980
2018-04-07T02:56:46.327Z,980
2018-04-07T02:57:47.581Z,980
2018-04-07T02:58:48.846Z,980.1
2018-04-07T02:59:50.149Z,980
2018-04-07T03:00:51.407Z,980
2018-04-07T03:01:52.874Z,980.1
2018-04-07T03:02:54.129Z,980
2018-04-07T03:03:55.371Z,980.1
2018-04-07T03:04:56.588Z,980.1
2018-04-07T03:05:58.118Z,980.1
2018-04-07T03:06:59.723Z,980.1
2018-04-07T03:08:05.475Z,980
2018-04-07T03:09:06.739Z,980.1
2018-04-07T03:10:08.066Z,980.1
2018-04-07T03:11:09.501Z,980.1
2018-04-07T03:12:10.845Z,980.1
2018-04-07T03:13:12.094Z,980.1
2018-04-07T03:14:13.384Z,980.1
2018-04-07T03:15:14.659Z,980.1
2018-04-07T03:16:15.960Z,980.1
2018-04-07T03:17:17.337Z,980.1
2018-04-07T03:18:18.972Z,979.9
2018-04-07T03:19:20.219Z,980.1
2018-04-07T03:20:21.484Z,980.1
2018-04-07T03:21:22.776Z,979.9
2018-04-07T03:22:24.078Z,980.1
2018-04-07T03:23:25.358Z,980.1
2018-04-07T03:24:26.606Z,980.1
2018-04-07T03:25:27.836Z,980.1
2018-04-07T03:26:29.069Z,980.1
2018-04-07T03:27:30.395Z,980.1
2018-04-07T03:28:31.642Z,980.1
2018-04-07T03:29:32.907Z,980.1
2018-04-07T03:30:34.146Z,979.9
2018-04-07T03:31:35.469Z,980
2018-04-07T03:32:36.924Z,980.1
2018-04-07T03:33:38.296Z,980
2018-04-07T03:34:39.616Z,979.9
2018-04-07T03:35:40.850Z,980
2018-04-07T03:36:42.104Z,979.9
2018-04-07T03:37:43.465Z,980
2018-04-07T03:38:44.805Z,980
2018-04-07T03:39:46.041Z,979.9
2018-04-07T03:40:47.292Z,979.9
2018-04-07T03:41:48.541Z,979.9
2018-04-07T03:42:49.825Z,979.9
2018-04-07T03:43:51.044Z,980
2018-04-07T03:44:52.362Z,979.9
2018-04-07T03:45:53.596Z,980
2018-04-07T03:46:54.851Z,980
2018-04-07T03:47:56.142Z,979.9
2018-04-07T03:48:57.380Z,979.9
2018-04-07T03:49:58.647Z,979.9
2018-04-07T03:50:59.871Z,980
2018-04-07T03:52:01.143Z,979.9
2018-04-07T03:53:02.542Z,979.9
2018-04-07T03:54:03.780Z,979.9
2018-04-07T03:55:05.064Z,979.7
2018-04-07T03:56:06.350Z,980
2018-04-07T03:57:07.741Z,979.9
2018-04-07T03:58:09.067Z,979.9
2018-04-07T03:59:10.333Z,979.9
2018-04-07T04:00:11.679Z,979.9
2018-04-07T04:01:12.957Z,980
2018-04-07T04:02:18.250Z,979.8
2018-04-07T04:03:19.547Z,980
2018-04-07T04:04:20.835Z,980
2018-04-07T04:05:22.083Z,979.9
2018-04-07T04:06:23.350Z,979.9
2018-04-07T04:07:24.593Z,979.9
2018-04-07T04:08:25.892Z,979.9
2018-04-07T04:09:27.179Z,980
2018-04-07T04:10:28.437Z,980
2018-04-07T04:11:29.672Z,979.9
2018-04-07T04:12:30.948Z,979.9
2018-04-07T04:13:32.300Z,979.9
2018-04-07T04:14:33.546Z,979.9
2018-04-07T04:15:35.035Z,980
2018-04-07T04:16:36.273Z,979.9
2018-04-07T04:17:37.626Z,979.9
2018-04-07T04:18:38.971Z,980
2018-04-07T04:19:40.203Z,980
2018-04-07T04:20:41.491Z,980
2018-04-07T04:21:42.780Z,980
2018-04-07T04:22:44.050Z,980
2018-04-07T04:23:45.310Z,980
2018-04-07T04:24:46.548Z,980
2018-04-07T04:25:47.803Z,980
2018-04-07T04:26:49.099Z,980
2018-04-07T04:27:50.329Z,980.1
2018-04-07T04:28:51.600Z,980.1
2018-04-07T04:29:52.847Z,980
2018-04-07T04:30:54.504Z,980.1
2018-04-07T04:31:55.786Z,979.6
2018-04-07T04:32:57.003Z,980
2018-04-07T04:33:58.463Z,980
2018-04-07T04:34:59.724Z,980.1
2018-04-07T04:36:00.965Z,980
2018-04-07T04:37:02.208Z,980
2018-04-07T04:38:03.555Z,979.9
2018-04-07T04:39:04.867Z,979.9
2018-04-07T04:40:06.319Z,979.9
2018-04-07T04:41:07.615Z,980
2018-04-07T04:42:08.914Z,979.9
2018-04-07T04:43:10.321Z,979.7
2018-04-07T04:44:11.702Z,979.9
2018-04-07T04:45:12.970Z,979.9
2018-04-07T04:46:25.400Z,979.9
2018-04-07T04:47:26.637Z,979.9
2018-04-07T04:48:27.880Z,979.9
2018-04-07T04:49:29.172Z,979.9
2018-04-07T04:50:30.497Z,979.9
2018-04-07T04:51:31.813Z,979.9
2018-04-07T04:52:33.214Z,979.9
2018-04-07T04:53:34.484Z,979.9
2018-04-07T04:54:35.820Z,979.9
2018-04-07T04:55:37.263Z,980
2018-04-07T04:56:38.585Z,979.9
2018-04-07T04:57:41.152Z,979.9
2018-04-07T04:58:42.412Z,979.9
2018-04-07T04:59:43.714Z,980
2018-04-07T05:00:44.949Z,980
2018-04-07T05:01:46.183Z,980
2018-04-07T05:02:47.450Z,979.9
2018-04-07T05:03:48.710Z,979.9
2018-04-07T05:04:50.130Z,980
2018-04-07T05:05:51.360Z,980
2018-04-07T05:06:52.582Z,979.9
2018-04-07T05:07:53.826Z,979.9
2018-04-07T05:08:55.166Z,979.9
2018-04-07T05:09:56.456Z,979.9
2018-04-07T05:10:57.706Z,980
2018-04-07T05:11:58.982Z,979.9
2018-04-07T05:13:00.297Z,979.9
2018-04-07T05:14:01.596Z,979.9
2018-04-07T05:15:02.966Z,979.9
2018-04-07T05:16:04.170Z,979.9
2018-04-07T05:17:05.456Z,979.9
2018-04-07T05:18:06.772Z,979.9
2018-04-07T05:19:08.124Z,979.9
2018-04-07T05:20:09.457Z,979.9
2018-04-07T05:21:10.814Z,979.9
2018-04-07T05:22:12.279Z,979.9
2018-04-07T05:23:13.753Z,979.9
2018-04-07T05:24:15.045Z,979.9
2018-04-07T05:25:16.442Z,979.9
2018-04-07T05:26:17.708Z,979.9
2018-04-07T05:27:18.967Z,979.9
2018-04-07T05:28:20.540Z,979.9
2018-04-07T05:29:21.853Z,979.9
2018-04-07T05:30:23.272Z,979.8
2018-04-07T05:31:24.535Z,979.8
2018-04-07T05:32:25.815Z,979.8
2018-04-07T05:33:27.048Z,979.8
2018-04-07T05:34:28.368Z,979.8
2018-04-07T05:35:29.713Z,979.8
2018-04-07T05:36:30.969Z,979.8
2018-04-07T05:37:32.226Z,979.9
2018-04-07T05:38:33.714Z,979.8
2018-04-07T05:39:35.087Z,979.8
2018-04-07T05:40:36.438Z,979.8
2018-04-07T05:41:37.714Z,979.9
2018-04-07T05:42:39.107Z,979.8
2018-04-07T05:43:40.424Z,979.9
2018-04-07T05:44:41.850Z,979.9
2018-04-07T05:45:43.210Z,979.7
2018-04-07T05:46:44.516Z,979.9
2018-04-07T05:47:45.950Z,979.9
2018-04-07T05:48:47.224Z,979.9
2018-04-07T05:49:48.503Z,979.9
2018-04-07T05:50:49.792Z,979.9
2018-04-07T05:51:51.118Z,979.8
2018-04-07T05:52:52.394Z,979.8
2018-04-07T05:53:54.086Z,979.7
2018-04-07T05:54:55.346Z,979.8
2018-04-07T05:55:56.690Z,979.8
2018-04-07T05:56:58.010Z,979.7
2018-04-07T05:57:59.238Z,979.7
2018-04-07T05:59:00.478Z,979.7
2018-04-07T06:00:03.367Z,979.7
2018-04-07T06:01:04.853Z,979.6
2018-04-07T06:02:06.271Z,979.7
2018-04-07T06:03:07.562Z,979.6
2018-04-07T06:04:08.862Z,979.6
2018-04-07T06:05:10.196Z,979.6
2018-04-07T06:06:11.682Z,979.5
2018-04-07T06:07:13.048Z,979.6
2018-04-07T06:08:14.775Z,979.5
2018-04-07T06:09:16.091Z,979.5
2018-04-07T06:10:17.430Z,979.5
2018-04-07T06:11:18.675Z,979.5
2018-04-07T06:12:20.011Z,979.6
2018-04-07T06:13:21.272Z,979.6
2018-04-07T06:14:22.596Z,979.6
2018-04-07T06:15:23.948Z,979.6
2018-04-07T06:16:25.386Z,979.6
2018-04-07T06:17:26.662Z,979.5
2018-04-07T06:18:27.929Z,979.5
2018-04-07T06:19:29.210Z,979.6
2018-04-07T06:20:30.846Z,979.3
2018-04-07T06:21:32.230Z,979.6
2018-04-07T06:22:33.633Z,979.5
2018-04-07T06:23:34.940Z,979.3
2018-04-07T06:24:36.219Z,979.5
2018-04-07T06:25:37.934Z,979.5
2018-04-07T06:26:39.521Z,979.5
2018-04-07T06:27:41.369Z,979.5
2018-04-07T06:28:43.380Z,979.5
2018-04-07T06:29:44.798Z,979.5
2018-04-07T06:30:46.093Z,979.5
2018-04-07T06:31:47.474Z,979.5
2018-04-07T06:32:48.820Z,979.5
2018-04-07T06:33:50.146Z,979.5
2018-04-07T06:34:51.639Z,979.6
2018-04-07T06:35:52.942Z,979.5
2018-04-07T06:36:54.684Z,979.4
2018-04-07T06:37:55.930Z,979.5
2018-04-07T06:38:57.258Z,979.5
2018-04-07T06:39:58.625Z,979.5
2018-04-07T06:40:59.942Z,979.4
2018-04-07T06:42:01.539Z,979.5
2018-04-07T06:43:02.862Z,979.5
2018-04-07T06:44:04.386Z,979.5
2018-04-07T06:45:05.729Z,979.5
2018-04-07T06:46:07.074Z,979.5
2018-04-07T06:47:08.616Z,979.5
2018-04-07T06:48:10.054Z,979.5
2018-04-07T06:49:11.391Z,979.5
2018-04-07T06:50:12.743Z,979.5
2018-04-07T06:51:20.620Z,979.5
2018-04-07T06:52:21.953Z,979.4
2018-04-07T06:53:23.297Z,979.4
2018-04-07T06:54:24.723Z,979.4
2018-04-07T06:55:26.045Z,979.4
2018-04-07T06:56:27.379Z,979.4
2018-04-07T06:57:28.739Z,979.4
2018-04-07T06:58:30.026Z,979.4
2018-04-07T06:59:31.349Z,979.4
2018-04-07T07:00:32.660Z,979.3
2018-04-07T07:01:34.152Z,979.4
2018-04-07T07:02:39.256Z,979.1
2018-04-07T07:03:40.590Z,979.3
2018-04-07T07:04:42.433Z,979.3
2018-04-07T07:05:44.032Z,979.3
2018-04-07T07:06:45.357Z,979.3
2018-04-07T07:07:46.803Z,979.3
2018-04-07T07:08:48.176Z,979.3
2018-04-07T07:09:49.521Z,979.3
2018-04-07T07:10:50.755Z,979.3
2018-04-07T07:11:52.056Z,979.3
2018-04-07T07:12:53.378Z,979.3
2018-04-07T07:13:55.301Z,979.2
2018-04-07T07:14:56.631Z,979.3
2018-04-07T07:15:57.851Z,979.4
2018-04-07T07:16:59.278Z,979.2
2018-04-07T07:18:00.703Z,979.4
2018-04-07T07:19:01.990Z,979.4
2018-04-07T07:20:03.292Z,979.4
2018-04-07T07:21:04.847Z,979.4
2018-04-07T07:22:06.281Z,979.4
2018-04-07T07:23:07.719Z,979.5
2018-04-07T07:24:09.078Z,979.5
2018-04-07T07:25:10.613Z,979.5
2018-04-07T07:26:12.075Z,979.6
2018-04-07T07:27:13.487Z,979.6
2018-04-07T07:28:15.079Z,979.5
2018-04-07T07:29:16.470Z,979.6
2018-04-07T07:30:18.227Z,979.7
2018-04-07T07:31:19.533Z,979.7
2018-04-07T07:32:20.966Z,979.7
2018-04-07T07:33:22.326Z,979.7
2018-04-07T07:34:23.610Z,979.7
2018-04-07T07:35:25.027Z,979.6
2018-04-07T07:36:26.324Z,979.8
2018-04-07T07:37:27.552Z,979.8
2018-04-07T07:38:28.885Z,979.9
2018-04-07T07:39:30.202Z,979.8
2018-04-07T07:40:31.555Z,979.8
2018-04-07T07:41:32.888Z,979.7
2018-04-07T07:42:34.574Z,979.8
2018-04-07T07:43:36.026Z,979.9
2018-04-07T07:44:37.433Z,979.8
2018-04-07T07:45:38.835Z,980
2018-04-07T07:46:40.161Z,979.8
2018-04-07T07:47:47.099Z,980
2018-04-07T07:48:48.654Z,980
2018-04-07T07:49:49.997Z,980
2018-04-07T07:50:51.260Z,979.8
2018-04-07T07:51:52.739Z,980
2018-04-07T07:52:54.414Z,980
2018-04-07T07:53:55.903Z,980
2018-04-07T07:54:58.177Z,980
2018-04-07T07:55:59.736Z,979.9
2018-04-07T07:57:01.065Z,980
2018-04-07T07:58:02.364Z,980
2018-04-07T07:59:03.725Z,980
2018-04-07T08:00:05.160Z,980
2018-04-07T08:01:06.549Z,980.1
2018-04-07T08:02:08.069Z,980.1
2018-04-07T08:03:09.429Z,980.1
2018-04-07T08:04:10.881Z,980.1
2018-04-07T08:05:12.407Z,980.2
2018-04-07T08:06:14.467Z,980.1
2018-04-07T08:07:16.108Z,980.1
2018-04-07T08:08:17.768Z,980.1
2018-04-07T08:09:19.170Z,980
2018-04-07T08:10:20.693Z,980.2
2018-04-07T08:11:22.094Z,980.2
2018-04-07T08:12:23.598Z,980.2
2018-04-07T08:13:25.027Z,980.2
2018-04-07T08:14:26.506Z,980.1
2018-04-07T08:15:27.805Z,980.2
2018-04-07T08:16:29.112Z,980.2
2018-04-07T08:17:30.551Z,980.2
2018-04-07T08:18:31.857Z,980.2
2018-04-07T08:19:33.336Z,980.2
2018-04-07T08:20:35.394Z,980.2
2018-04-07T08:21:36.988Z,980.2
2018-04-07T08:22:38.297Z,980.3
2018-04-07T08:23:39.765Z,980.1
2018-04-07T08:24:41.287Z,980.2
2018-04-07T08:25:42.758Z,980.2
2018-04-07T08:26:44.190Z,980.2
2018-04-07T08:27:45.739Z,980.1
2018-04-07T08:28:47.085Z,980.2
2018-04-07T08:29:48.836Z,980.2
2018-04-07T08:30:50.175Z,980.2
2018-04-07T08:31:51.889Z,980.2
2018-04-07T08:32:53.553Z,980.3
2018-04-07T08:33:55.601Z,980.3
2018-04-07T08:34:59.770Z,980.4
2018-04-07T08:36:10.067Z,980.3
2018-04-07T08:37:14.830Z,980.2
2018-04-07T08:38:13.351Z,980.3
2018-04-07T08:39:14.953Z,980.3
2018-04-07T08:40:16.712Z,980.3
2018-04-07T08:41:18.178Z,980.1
2018-04-07T08:42:20.419Z,980.2
2018-04-07T08:43:21.747Z,980.3
2018-04-07T08:44:23.718Z,980.2
2018-04-07T08:45:25.252Z,980.2
2018-04-07T08:46:26.690Z,980.1
2018-04-07T08:47:28.219Z,980.2
2018-04-07T08:48:29.583Z,980.1
2018-04-07T08:49:30.901Z,980
2018-04-07T08:50:32.345Z,980.1
2018-04-07T08:51:33.871Z,980.2
2018-04-07T08:52:35.259Z,980.1
2018-04-07T08:53:36.550Z,980.1
2018-04-07T08:54:38.336Z,980.1
2018-04-07T08:55:40.108Z,980
2018-04-07T08:56:41.548Z,980.2
2018-04-07T08:57:43.161Z,980.1
2018-04-07T08:58:44.936Z,980.2
2018-04-07T08:59:46.271Z,980.2
2018-04-07T09:00:48.002Z,980.1
2018-04-07T09:01:49.437Z,980.1
2018-04-07T09:02:50.836Z,980
2018-04-07T09:03:52.285Z,980
2018-04-07T09:04:53.960Z,979.9
2018-04-07T09:05:55.430Z,979.9
2018-04-07T09:06:56.854Z,979.9
2018-04-07T09:07:58.475Z,979.9
2018-04-07T09:08:59.811Z,980
2018-04-07T09:10:01.264Z,979.9
2018-04-07T09:11:02.906Z,979.9
2018-04-07T09:12:04.220Z,980
2018-04-07T09:13:05.602Z,980
2018-04-07T09:14:06.950Z,979.9
2018-04-07T09:15:08.379Z,979.9
2018-04-07T09:16:10.023Z,979.8
2018-04-07T09:17:11.565Z,979.9
2018-04-07T09:18:12.931Z,979.9
2018-04-07T09:19:14.762Z,980
2018-04-07T09:20:16.576Z,979.9
2018-04-07T09:21:18.036Z,979.9
2018-04-07T09:22:23.094Z,980
2018-04-07T09:23:24.529Z,979.8
2018-04-07T09:24:26.392Z,980
2018-04-07T09:25:27.758Z,979.9
2018-04-07T09:26:29.525Z,979.9
2018-04-07T09:27:30.883Z,979.9
2018-04-07T09:28:32.654Z,979.9
2018-04-07T09:29:33.965Z,979.9
2018-04-07T09:30:35.595Z,979.8
2018-04-07T09:31:37.004Z,979.9
2018-04-07T09:32:39.222Z,979.9
2018-04-07T09:33:40.673Z,979.9
2018-04-07T09:34:42.026Z,979.9
2018-04-07T09:35:43.984Z,979.9
2018-04-07T09:36:45.644Z,979.9
2018-04-07T09:37:47.548Z,979.7
2018-04-07T09:38:49.086Z,979.9
2018-04-07T09:39:50.460Z,979.9
2018-04-07T09:40:51.916Z,979.8
2018-04-07T09:41:53.428Z,979.8
2018-04-07T09:42:54.781Z,979.8
2018-04-07T09:43:56.056Z,979.8
2018-04-07T09:44:57.381Z,979.8
2018-04-07T09:45:58.679Z,979.8
2018-04-07T09:47:00.083Z,979.8
2018-04-07T09:48:01.944Z,979.7
2018-04-07T09:49:03.199Z,979.8
2018-04-07T09:50:04.692Z,979.8
2018-04-07T09:51:06.379Z,979.8
2018-04-07T09:52:08.118Z,979.8
2018-04-07T09:53:10.474Z,979.8
2018-04-07T09:54:12.104Z,979.8
2018-04-07T09:55:13.447Z,979.8
2018-04-07T09:56:15.186Z,979.7
2018-04-07T09:57:17.450Z,979.6
2018-04-07T09:58:18.892Z,979.8
2018-04-07T09:59:20.432Z,979.5
2018-04-07T10:00:22.110Z,979.8
2018-04-07T10:01:23.550Z,979.8
2018-04-07T10:02:25.249Z,979.7
2018-04-07T10:03:26.742Z,979.7
2018-04-07T10:04:28.502Z,979.7
2018-04-07T10:05:30.025Z,979.5
2018-04-07T10:06:31.633Z,979.7
2018-04-07T10:07:33.172Z,979.7
2018-04-07T10:08:34.626Z,979.7
2018-04-07T10:09:36.040Z,979.7
2018-04-07T10:10:37.641Z,979.7
2018-04-07T10:11:39.140Z,979.6
2018-04-07T10:12:41.810Z,979.7
2018-04-07T10:13:45.439Z,979.7
2018-04-07T10:14:46.972Z,979.8
2018-04-07T10:15:49.751Z,979.6
2018-04-07T10:16:51.152Z,979.8
2018-04-07T10:17:52.637Z,979.7
2018-04-07T10:18:54.225Z,979.6
2018-04-07T10:19:55.931Z,979.5
2018-04-07T10:20:57.637Z,979.6
2018-04-07T10:21:59.045Z,979.6
2018-04-07T10:23:00.651Z,979.6
2018-04-07T10:24:02.187Z,979.6
2018-04-07T10:25:03.496Z,979.5
2018-04-07T10:26:05.071Z,979.5
2018-04-07T10:27:08.168Z,979.6
2018-04-07T10:28:10.547Z,979.4
2018-04-07T10:29:12.030Z,979.5
2018-04-07T10:30:13.601Z,979.4
2018-04-07T10:31:15.184Z,979.6
2018-04-07T10:32:16.788Z,979.5
2018-04-07T10:33:21.398Z,979.4
2018-04-07T10:34:22.818Z,979.4
2018-04-07T10:35:24.242Z,979.5
2018-04-07T10:36:25.573Z,979.4
2018-04-07T10:37:27.683Z,979.5
2018-04-07T10:38:28.961Z,979.4
2018-04-07T10:39:30.298Z,979.4
2018-04-07T10:40:31.671Z,979.3
2018-04-07T10:41:33.235Z,979.4
2018-04-07T10:42:34.877Z,979.5
2018-04-07T10:43:36.905Z,979.4
2018-04-07T10:44:38.175Z,979.3
2018-04-07T10:45:39.719Z,979.3
2018-04-07T10:46:44.095Z,979.4
2018-04-07T10:47:45.758Z,979.3
2018-04-07T10:48:47.415Z,979.3
2018-04-07T10:49:48.900Z,979.3
2018-04-07T10:50:50.244Z,979.3
2018-04-07T10:51:51.520Z,979.2
2018-04-07T10:52:53.031Z,979.2
2018-04-07T10:53:54.358Z,979.2
2018-04-07T10:54:55.880Z,979.2
2018-04-07T10:55:57.272Z,979.2
2018-04-07T10:56:58.655Z,979.2
2018-04-07T10:58:00.059Z,979.1
2018-04-07T10:59:01.515Z,979.1
2018-04-07T11:00:02.983Z,979.1
2018-04-07T11:01:04.334Z,979.2
2018-04-07T11:02:06.216Z,979.1
2018-04-07T11:03:10.780Z,978.9
2018-04-07T11:04:12.705Z,978.9
2018-04-07T11:05:14.087Z,978.9
2018-04-07T11:06:15.689Z,979
2018-04-07T11:07:17.098Z,978.9
2018-04-07T11:08:18.575Z,979
2018-04-07T11:09:20.049Z,978.9
2018-04-07T11:10:21.895Z,978.9
2018-04-07T11:11:23.297Z,978.8
2018-04-07T11:12:24.607Z,978.8
2018-04-07T11:13:28.845Z,978.9
2018-04-07T11:14:30.407Z,979
2018-04-07T11:15:31.730Z,978.9
2018-04-07T11:16:33.243Z,978.9
2018-04-07T11:17:34.657Z,978.9
2018-04-07T11:18:36.124Z,978.8
2018-04-07T11:19:37.687Z,978.6
2018-04-07T11:20:39.331Z,978.7
2018-04-07T11:21:40.847Z,978.7
2018-04-07T11:22:42.361Z,978.5
2018-04-07T11:23:43.716Z,978.7
2018-04-07T11:24:45.166Z,978.6
2018-04-07T11:25:46.583Z,978.6
2018-04-07T11:26:47.941Z,978.6
2018-04-07T11:27:49.320Z,978.5
2018-04-07T11:28:50.711Z,978.5
2018-04-07T11:29:54.964Z,978.6
2018-04-07T11:30:56.221Z,978.6
2018-04-07T11:31:58.562Z,978.4
2018-04-07T11:32:59.794Z,978.4
2018-04-07T11:34:01.190Z,978.4
2018-04-07T11:35:03.164Z,978.3
2018-04-07T11:36:04.598Z,978.3
2018-04-07T11:37:05.943Z,978.4
2018-04-07T11:38:07.266Z,978.4
2018-04-07T11:39:08.625Z,978.5
2018-04-07T11:40:09.975Z,978.4
2018-04-07T11:41:11.452Z,978.2
2018-04-07T11:42:12.915Z,978.2
2018-04-07T11:43:14.663Z,978.1
2018-04-07T11:44:16.649Z,978.3
2018-04-07T11:45:18.693Z,978.1
2018-04-07T11:46:20.104Z,978.1
2018-04-07T11:47:22.192Z,978.2
2018-04-07T11:48:23.653Z,978.3
2018-04-07T11:49:25.036Z,978.2
2018-04-07T11:50:26.493Z,978.2
2018-04-07T11:51:27.960Z,977.9
2018-04-07T11:52:29.317Z,978.1
2018-04-07T11:53:30.689Z,978.1
2018-04-07T11:54:32.471Z,978.2
2018-04-07T11:55:33.966Z,978
2018-04-07T11:56:35.346Z,978.2
2018-04-07T11:57:36.867Z,978.2
2018-04-07T11:58:38.202Z,978.1
2018-04-07T11:59:39.505Z,978.1
2018-04-07T12:00:41.297Z,978
2018-04-07T12:01:42.621Z,977.9
2018-04-07T12:02:45.743Z,978.1
2018-04-07T12:03:47.646Z,978
2018-04-07T12:04:49.381Z,978.1
2018-04-07T12:05:50.937Z,978
2018-04-07T12:06:52.447Z,978.1
2018-04-07T12:07:53.835Z,978.1
2018-04-07T12:08:55.438Z,977.9
2018-04-07T12:09:57.000Z,978
2018-04-07T12:10:58.444Z,977.9
2018-04-07T12:12:01.978Z,978
2018-04-07T12:13:06.926Z,977.8
2018-04-07T12:14:08.435Z,977.8
2018-04-07T12:15:09.890Z,977.8
2018-04-07T12:16:11.936Z,977.8
2018-04-07T12:17:13.357Z,977.9
2018-04-07T12:18:15.157Z,977.9
2018-04-07T12:19:19.627Z,977.9
2018-04-07T12:20:21.156Z,977.9
2018-04-07T12:21:24.996Z,977.9
2018-04-07T12:22:27.507Z,977.8
2018-04-07T12:23:32.280Z,977.9
2018-04-07T12:24:35.923Z,977.8
2018-04-07T12:25:37.652Z,977.7
2018-04-07T12:26:38.973Z,977.7
2018-04-07T12:27:41.827Z,977.7
2018-04-07T12:28:43.236Z,977.6
2018-04-07T12:29:44.678Z,977.6
2018-04-07T12:30:46.210Z,977.7
2018-04-07T12:31:47.672Z,977.6
2018-04-07T12:32:49.956Z,977.5
2018-04-07T12:33:51.725Z,977.7
2018-04-07T12:34:56.302Z,977.7
2018-04-07T12:35:57.721Z,977.6
2018-04-07T12:36:59.046Z,977.7
2018-04-07T12:38:00.499Z,977.5
2018-04-07T12:39:02.261Z,977.7
2018-04-07T12:40:03.707Z,977.7
2018-04-07T12:41:08.279Z,977.7
2018-04-07T12:42:09.738Z,977.8
2018-04-07T12:43:11.082Z,977.6
2018-04-07T12:44:12.538Z,977.5
2018-04-07T12:45:13.889Z,977.5
2018-04-07T12:46:15.591Z,977.6
2018-04-07T12:47:17.119Z,977.6
2018-04-07T12:48:18.738Z,977.5
2018-04-07T12:49:20.219Z,977.4
2018-04-07T12:50:22.016Z,977.3
2018-04-07T12:51:26.846Z,977.5
2018-04-07T12:52:28.404Z,977.2
2018-04-07T12:53:29.780Z,977.4
2018-04-07T12:54:31.117Z,977.3
2018-04-07T12:55:33.145Z,977.3
2018-04-07T12:56:34.634Z,977.2
2018-04-07T12:57:36.181Z,977.4
2018-04-07T12:58:37.604Z,977.3
2018-04-07T12:59:39.020Z,977.4
2018-04-07T13:00:41.474Z,977.3
2018-04-07T13:01:43.114Z,977.4
2018-04-07T13:02:44.770Z,977.2
2018-04-07T13:03:46.452Z,977.2
2018-04-07T13:04:48.075Z,977.2
2018-04-07T13:05:49.632Z,977.2
2018-04-07T13:06:51.162Z,977.2
2018-04-07T13:07:55.319Z,977
2018-04-07T13:08:56.881Z,977.2
2018-04-07T13:09:58.205Z,977.2
2018-04-07T13:10:59.478Z,977.2
2018-04-07T13:12:01.280Z,977.3
2018-04-07T13:13:02.756Z,977.2
2018-04-07T13:14:04.037Z,977.3
2018-04-07T13:15:05.333Z,977.2
2018-04-07T13:16:06.738Z,977.1
2018-04-07T13:17:08.249Z,976.9
2018-04-07T13:18:09.822Z,977.2
2018-04-07T13:19:11.561Z,977.2
2018-04-07T13:20:13.981Z,977.1
2018-04-07T13:21:18.871Z,977.2